createdAt,value
2018-05-17T00:02:08.111Z,13.41
2018-05-17T00:04:36.477Z,13.40
2018-05-17T00:07:04.049Z,13.39
2018-05-17T00:09:32.567Z,13.42
2018-05-17T00:12:00.921Z,13.37
2018-05-17T00:14:29.329Z,13.35
2018-05-17T00:16:57.680Z,13.37
2018-05-17T00:19:26.093Z,13.31
2018-05-17T00:21:54.445Z,13.26
2018-05-17T00:24:22.068Z,13.26
2018-05-17T00:26:49.648Z,13.26
2018-05-17T00:29:18.118Z,13.23
2018-05-17T00:31:46.506Z,13.22
2018-05-17T00:34:14.085Z,13.22
2018-05-17T00:36:42.413Z,13.23
2018-05-17T00:39:09.993Z,13.23
2018-05-17T00:41:37.621Z,13.23
2018-05-17T00:44:05.207Z,13.21
2018-05-17T00:46:33.508Z,13.29
2018-05-17T00:49:01.085Z,13.29
2018-05-17T00:51:28.671Z,13.32
2018-05-17T00:53:56.305Z,13.33
2018-05-17T00:56:24.793Z,13.33
2018-05-17T00:58:52.374Z,13.28
2018-05-17T01:01:19.955Z,13.26
2018-05-17T01:03:47.569Z,13.21
2018-05-17T01:06:15.161Z,13.17
2018-05-17T01:08:43.609Z,13.16
2018-05-17T01:11:11.192Z,13.14
2018-05-17T01:13:39.662Z,13.18
2018-05-17T01:16:07.244Z,13.21
2018-05-17T01:18:35.726Z,13.20
2018-05-17T01:21:03.300Z,13.20
2018-05-17T01:23:31.671Z,13.19
2018-05-17T01:25:59.290Z,13.17
2018-05-17T01:28:26.869Z,13.15
2018-05-17T01:30:55.136Z,13.11
2018-05-17T01:33:22.717Z,13.14
2018-05-17T01:35:50.336Z,13.12
2018-05-17T01:38:25.724Z,13.12
2018-05-17T01:40:53.340Z,13.09
2018-05-17T01:43:20.925Z,13.08
2018-05-17T01:45:48.548Z,13.08
2018-05-17T01:48:16.128Z,13.03
2018-05-17T01:50:43.753Z,13.03
2018-05-17T01:53:12.124Z,12.99
2018-05-17T01:55:40.492Z,13.03
2018-05-17T01:58:08.957Z,12.95
2018-05-17T02:00:36.532Z,12.90
2018-05-17T02:03:04.121Z,12.89
2018-05-17T02:05:31.709Z,12.86
2018-05-17T02:07:59.283Z,12.84
2018-05-17T02:10:26.864Z,12.87
2018-05-17T02:12:54.442Z,12.84
2018-05-17T02:15:22.024Z,12.85
2018-05-17T02:17:49.656Z,12.80
2018-05-17T02:20:17.229Z,12.80
2018-05-17T02:22:44.815Z,12.82
2018-05-17T02:25:13.407Z,12.83
2018-05-17T02:27:40.984Z,12.89
2018-05-17T02:30:08.565Z,12.94
2018-05-17T02:32:36.161Z,12.93
2018-05-17T02:35:03.747Z,12.98
2018-05-17T02:37:31.334Z,13.01
2018-05-17T02:39:58.917Z,12.98
2018-05-17T02:42:26.497Z,12.98
2018-05-17T02:44:54.076Z,12.97
2018-05-17T02:47:22.361Z,12.92
2018-05-17T02:49:49.980Z,13.01
2018-05-17T02:52:17.559Z,13.01
2018-05-17T02:54:45.148Z,13.00
2018-05-17T02:57:12.742Z,13.03
2018-05-17T02:59:40.326Z,13.07
2018-05-17T03:02:07.949Z,13.08
2018-05-17T03:04:35.525Z,13.07
2018-05-17T03:07:03.112Z,13.13
2018-05-17T03:09:30.685Z,13.16
2018-05-17T03:11:59.037Z,13.18
2018-05-17T03:14:26.653Z,13.16
2018-05-17T03:16:54.369Z,13.13
2018-05-17T03:19:22.908Z,13.12
2018-05-17T03:21:51.438Z,13.09
2018-05-17T03:24:19.023Z,13.04
2018-05-17T03:26:46.608Z,13.07
2018-05-17T03:29:14.969Z,13.07
2018-05-17T03:31:43.329Z,13.04
2018-05-17T03:34:11.696Z,13.03
2018-05-17T03:36:40.176Z,12.96
2018-05-17T03:39:07.761Z,13.04
2018-05-17T03:41:35.421Z,13.09
2018-05-17T03:44:03.813Z,13.09
2018-05-17T03:46:32.226Z,13.04
2018-05-17T03:48:59.768Z,13.09
2018-05-17T03:51:28.045Z,13.10
2018-05-17T03:53:55.694Z,13.10
2018-05-17T03:56:23.237Z,13.05
2018-05-17T03:58:51.721Z,13.07
2018-05-17T04:01:30.922Z,13.11
2018-05-17T04:04:10.369Z,13.12
2018-05-17T04:06:42.505Z,13.10
2018-05-17T04:09:10.788Z,13.09
2018-05-17T04:11:38.369Z,13.08
2018-05-17T04:14:06.777Z,13.07
2018-05-17T04:16:35.194Z,13.05
2018-05-17T04:19:03.731Z,13.06
2018-05-17T04:21:32.257Z,13.11
2018-05-17T04:23:59.876Z,13.14
2018-05-17T04:26:28.145Z,13.18
2018-05-17T04:28:55.766Z,13.17
2018-05-17T04:31:23.352Z,13.17
2018-05-17T04:33:51.847Z,13.20
2018-05-17T04:36:19.429Z,13.25
2018-05-17T04:38:47.953Z,13.25
2018-05-17T04:41:15.539Z,13.25
2018-05-17T04:43:43.812Z,13.31
2018-05-17T04:46:11.398Z,13.31
2018-05-17T04:48:38.977Z,13.30
2018-05-17T04:51:06.552Z,13.43
2018-05-17T04:53:34.132Z,13.46
2018-05-17T04:56:01.710Z,13.51
2018-05-17T04:58:29.292Z,13.49
2018-05-17T05:00:56.881Z,13.47
2018-05-17T05:03:24.467Z,13.50
2018-05-17T05:05:52.045Z,13.49
2018-05-17T05:08:19.626Z,13.44
2018-05-17T05:10:47.208Z,13.46
2018-05-17T05:13:14.829Z,13.46
2018-05-17T05:15:42.409Z,13.40
2018-05-17T05:18:10.172Z,13.54
2018-05-17T05:20:37.756Z,13.56
2018-05-17T05:23:05.332Z,13.58
2018-05-17T05:25:32.953Z,13.51
2018-05-17T05:28:00.591Z,13.57
2018-05-17T05:30:29.007Z,13.56
2018-05-17T05:32:56.594Z,13.64
2018-05-17T05:35:24.172Z,13.73
2018-05-17T05:37:52.653Z,13.70
2018-05-17T05:40:20.933Z,13.75
2018-05-17T05:45:21.369Z,13.89
2018-05-17T05:47:49.778Z,13.99
2018-05-17T05:50:17.388Z,14.09
2018-05-17T05:52:45.005Z,14.17
2018-05-17T05:55:12.584Z,14.24
2018-05-17T05:57:41.097Z,14.33
2018-05-17T06:00:08.720Z,14.37
2018-05-17T06:02:37.013Z,14.32
2018-05-17T06:05:04.633Z,14.39
2018-05-17T06:07:32.212Z,14.40
2018-05-17T06:09:59.788Z,14.43
2018-05-17T06:12:27.368Z,14.47
2018-05-17T06:14:55.099Z,14.56
2018-05-17T06:17:22.726Z,14.63
2018-05-17T06:19:50.364Z,14.73
2018-05-17T06:22:17.937Z,14.96
2018-05-17T06:24:46.428Z,15.07
2018-05-17T06:27:14.049Z,15.20
2018-05-17T06:29:41.625Z,15.32
2018-05-17T06:32:09.976Z,15.39
2018-05-17T06:34:38.450Z,15.55
2018-05-17T06:37:06.837Z,15.70
2018-05-17T06:39:35.145Z,15.82
2018-05-17T06:42:02.732Z,15.88
2018-05-17T06:44:31.124Z,16.06
2018-05-17T06:46:59.589Z,16.08
2018-05-17T06:49:27.212Z,16.03
2018-05-17T06:51:55.666Z,16.08
2018-05-17T06:54:23.992Z,16.09
2018-05-17T06:56:52.276Z,16.11
2018-05-17T06:59:20.640Z,16.11
2018-05-17T07:01:49.037Z,16.20
2018-05-17T07:04:16.769Z,16.26
2018-05-17T07:06:45.149Z,16.37
2018-05-17T07:09:13.565Z,16.55
2018-05-17T07:11:41.227Z,16.53
2018-05-17T07:14:09.734Z,16.66
2018-05-17T07:16:38.091Z,16.67
2018-05-17T07:19:05.762Z,16.73
2018-05-17T07:21:34.183Z,16.85
2018-05-17T07:24:02.556Z,16.98
2018-05-17T07:26:30.961Z,17.09
2018-05-17T07:28:59.351Z,17.13
2018-05-17T07:31:27.798Z,17.20
2018-05-17T07:33:56.264Z,17.29
2018-05-17T07:36:23.877Z,17.38
2018-05-17T07:38:52.313Z,17.48
2018-05-17T07:41:20.861Z,17.55
2018-05-17T07:43:48.478Z,17.70
2018-05-17T07:46:16.899Z,17.83
2018-05-17T07:48:45.169Z,17.89
2018-05-17T07:51:13.593Z,17.76
2018-05-17T07:53:41.226Z,17.99
2018-05-17T07:56:09.572Z,18.06
2018-05-17T07:58:37.149Z,18.36
2018-05-17T08:01:05.653Z,18.54
2018-05-17T08:03:33.320Z,18.71
2018-05-17T08:06:00.889Z,18.90
2018-05-17T08:08:28.465Z,18.98
2018-05-17T08:10:56.045Z,19.06
2018-05-17T08:13:23.617Z,18.90
2018-05-17T08:15:51.193Z,18.90
2018-05-17T08:18:18.772Z,18.89
2018-05-17T08:20:46.353Z,19.08
2018-05-17T08:23:13.936Z,19.33
2018-05-17T08:25:41.565Z,19.43
2018-05-17T08:28:09.140Z,19.22
2018-05-17T08:30:36.785Z,19.36
2018-05-17T08:33:04.365Z,19.42
2018-05-17T08:35:31.941Z,19.41
2018-05-17T08:37:59.518Z,19.50
2018-05-17T08:40:27.186Z,19.59
2018-05-17T08:42:54.802Z,19.71
2018-05-17T08:45:22.382Z,19.41
2018-05-17T08:47:50.013Z,19.56
2018-05-17T08:50:17.589Z,19.64
2018-05-17T08:52:45.201Z,19.64
2018-05-17T08:55:13.570Z,19.78
2018-05-17T08:57:41.192Z,19.60
2018-05-17T09:00:08.770Z,19.66
2018-05-17T09:02:36.341Z,19.85
2018-05-17T09:05:04.785Z,19.84
2018-05-17T09:07:32.370Z,19.80
2018-05-17T09:10:00.808Z,19.58
2018-05-17T09:12:28.375Z,19.63
2018-05-17T09:14:56.901Z,19.89
2018-05-17T09:17:24.537Z,19.97
2018-05-17T09:19:52.157Z,19.90
2018-05-17T09:22:19.757Z,19.95
2018-05-17T09:24:47.380Z,20.14
2018-05-17T09:27:15.784Z,20.14
2018-05-17T09:29:43.364Z,20.21
2018-05-17T09:32:11.797Z,20.36
2018-05-17T09:34:39.369Z,20.39
2018-05-17T09:37:07.856Z,20.51
2018-05-17T09:39:35.433Z,20.65
2018-05-17T09:42:03.905Z,20.53
2018-05-17T09:44:31.478Z,20.76
2018-05-17T09:46:59.057Z,20.95
2018-05-17T09:49:26.625Z,21.14
2018-05-17T09:51:56.284Z,21.33
2018-05-17T09:54:24.637Z,21.46
2018-05-17T09:56:52.209Z,21.61
2018-05-17T09:59:19.786Z,21.81
2018-05-17T10:01:48.257Z,21.76
2018-05-17T10:04:15.845Z,21.77
2018-05-17T10:06:43.417Z,21.82
2018-05-17T10:09:10.984Z,21.62
2018-05-17T10:11:39.453Z,21.37
2018-05-17T10:14:07.021Z,21.32
2018-05-17T10:16:34.593Z,21.18
2018-05-17T10:19:02.169Z,21.30
2018-05-17T10:21:29.745Z,21.35
2018-05-17T10:23:57.321Z,21.51
2018-05-17T10:26:24.905Z,21.24
2018-05-17T10:28:52.477Z,20.99
2018-05-17T10:31:20.058Z,20.69
2018-05-17T10:33:47.668Z,20.63
2018-05-17T10:36:17.048Z,20.56
2018-05-17T10:38:45.394Z,20.59
2018-05-17T10:41:13.073Z,20.32
2018-05-17T10:43:40.683Z,20.38
2018-05-17T10:46:09.053Z,20.58
2018-05-17T10:48:36.629Z,20.84
2018-05-17T10:51:04.205Z,20.58
2018-05-17T10:53:31.772Z,20.62
2018-05-17T10:56:00.118Z,20.60
2018-05-17T10:58:27.708Z,20.67
2018-05-17T11:00:55.284Z,20.79
2018-05-17T11:03:22.861Z,20.83
2018-05-17T11:05:50.447Z,20.69
2018-05-17T11:08:18.813Z,20.67
2018-05-17T11:10:46.434Z,20.89
2018-05-17T11:13:14.799Z,20.99
2018-05-17T11:15:42.377Z,21.35
2018-05-17T11:18:09.953Z,21.39
2018-05-17T11:20:37.534Z,21.64
2018-05-17T11:23:05.192Z,21.92
2018-05-17T11:25:32.860Z,22.09
2018-05-17T11:28:00.529Z,21.67
2018-05-17T11:30:28.100Z,21.55
2018-05-17T11:32:55.745Z,21.40
2018-05-17T11:35:23.301Z,21.60
2018-05-17T11:37:51.645Z,21.41
2018-05-17T11:40:19.220Z,21.43
2018-05-17T11:42:46.800Z,21.19
2018-05-17T11:45:20.713Z,21.39
2018-05-17T11:47:48.289Z,21.26
2018-05-17T11:50:15.861Z,21.24
2018-05-17T11:52:44.341Z,21.17
2018-05-17T11:55:11.916Z,21.31
2018-05-17T11:57:39.586Z,21.17
2018-05-17T12:00:07.142Z,21.07
2018-05-17T12:02:34.953Z,21.43
2018-05-17T12:05:02.534Z,21.27
2018-05-17T12:07:30.136Z,20.89
2018-05-17T12:09:57.726Z,21.02
2018-05-17T12:12:25.379Z,20.99
2018-05-17T12:14:52.976Z,20.91
2018-05-17T12:17:20.657Z,20.87
2018-05-17T12:19:48.453Z,20.92
2018-05-17T12:22:15.965Z,20.91
2018-05-17T12:24:43.545Z,21.15
2018-05-17T12:27:11.121Z,21.54
2018-05-17T12:29:38.697Z,21.70
2018-05-17T12:32:06.275Z,21.78
2018-05-17T12:34:33.852Z,21.98
2018-05-17T12:37:01.499Z,22.02
2018-05-17T12:39:29.025Z,22.24
2018-05-17T12:41:56.588Z,22.39
2018-05-17T12:44:24.169Z,22.85
2018-05-17T12:46:52.656Z,22.95
2018-05-17T12:49:20.224Z,23.05
2018-05-17T12:51:48.480Z,22.88
2018-05-17T12:54:16.050Z,23.01
2018-05-17T12:56:43.634Z,22.68
2018-05-17T12:59:12.112Z,22.40
2018-05-17T13:01:39.687Z,22.45
2018-05-17T13:04:07.265Z,22.58
2018-05-17T13:06:34.845Z,22.65
2018-05-17T13:09:02.421Z,22.31
2018-05-17T13:11:29.996Z,22.21
2018-05-17T13:13:57.616Z,22.10
2018-05-17T13:16:25.313Z,21.77
2018-05-17T13:18:52.909Z,21.66
2018-05-17T13:21:20.480Z,21.65
2018-05-17T13:23:48.165Z,21.61
2018-05-17T13:26:16.441Z,22.01
2018-05-17T13:28:44.917Z,22.36
2018-05-17T13:31:12.501Z,22.48
2018-05-17T13:33:40.990Z,22.59
2018-05-17T13:36:09.339Z,22.86
2018-05-17T13:38:37.707Z,22.83
2018-05-17T13:41:05.968Z,22.92
2018-05-17T13:43:34.338Z,22.76
2018-05-17T13:46:01.945Z,23.00
2018-05-17T13:48:30.321Z,22.97
2018-05-17T13:50:58.819Z,23.25
2018-05-17T13:53:27.224Z,23.34
2018-05-17T13:55:54.845Z,23.29
2018-05-17T13:58:22.417Z,23.19
2018-05-17T14:00:50.801Z,23.05
2018-05-17T14:03:18.462Z,23.34
2018-05-17T14:05:46.037Z,23.15
2018-05-17T14:08:13.606Z,22.85
2018-05-17T14:10:42.141Z,22.62
2018-05-17T14:13:09.713Z,22.47
2018-05-17T14:15:37.388Z,22.57
2018-05-17T14:18:04.901Z,22.81
2018-05-17T14:20:32.481Z,22.84
2018-05-17T14:23:00.153Z,22.85
2018-05-17T14:25:27.761Z,22.61
2018-05-17T14:27:55.343Z,23.06
2018-05-17T14:30:23.055Z,23.46
2018-05-17T14:32:50.625Z,23.99
2018-05-17T14:35:18.207Z,24.16
2018-05-17T14:37:45.787Z,24.62
2018-05-17T14:40:14.272Z,24.46
2018-05-17T14:42:42.589Z,24.82
2018-05-17T14:45:10.165Z,25.43
2018-05-17T14:47:37.738Z,25.65
2018-05-17T14:50:05.308Z,25.98
2018-05-17T14:52:32.886Z,26.12
2018-05-17T14:55:00.462Z,26.26
2018-05-17T14:57:28.033Z,26.08
2018-05-17T14:59:55.611Z,26.07
2018-05-17T15:02:23.231Z,26.31
2018-05-17T15:04:50.805Z,26.10
2018-05-17T15:07:18.381Z,26.05
2018-05-17T15:09:45.961Z,26.21
2018-05-17T15:12:13.539Z,26.28
2018-05-17T15:14:41.149Z,26.04
2018-05-17T15:17:08.724Z,26.01
2018-05-17T15:19:36.409Z,25.71
2018-05-17T15:22:04.881Z,26.35
2018-05-17T15:24:32.545Z,26.56
2018-05-17T15:27:00.106Z,26.44
2018-05-17T15:29:27.682Z,26.70
2018-05-17T15:31:55.263Z,26.12
2018-05-17T15:34:22.837Z,25.80
2018-05-17T15:36:50.449Z,26.11
2018-05-17T15:39:19.009Z,26.27
2018-05-17T15:41:46.654Z,26.57
2018-05-17T15:44:14.251Z,26.00
2018-05-17T15:46:41.823Z,26.70
2018-05-17T15:49:09.396Z,26.15
2018-05-17T15:51:37.669Z,25.26
2018-05-17T15:54:05.246Z,24.77
2018-05-17T15:56:32.824Z,24.59
2018-05-17T15:59:00.403Z,24.12
2018-05-17T16:01:27.977Z,23.94
2018-05-17T16:03:55.549Z,23.85
2018-05-17T16:06:23.121Z,23.73
2018-05-17T16:08:50.701Z,23.52
2018-05-17T16:11:18.317Z,23.29
2018-05-17T16:13:45.884Z,23.30
2018-05-17T16:16:13.499Z,23.33
2018-05-17T16:18:41.080Z,23.56
2018-05-17T16:21:08.659Z,23.48
2018-05-17T16:23:36.238Z,23.36
2018-05-17T16:26:03.809Z,23.34
2018-05-17T16:28:31.381Z,23.25
2018-05-17T16:30:58.972Z,23.14
2018-05-17T16:33:26.548Z,22.67
2018-05-17T16:35:54.122Z,22.40
2018-05-17T16:38:21.702Z,22.44
2018-05-17T16:40:49.282Z,22.20
2018-05-17T16:43:16.925Z,22.32
2018-05-17T16:45:44.501Z,22.17
2018-05-17T16:48:12.105Z,22.21
2018-05-17T16:50:39.676Z,22.07
2018-05-17T16:53:07.332Z,21.95
2018-05-17T16:55:34.900Z,21.74
2018-05-17T16:58:02.477Z,21.66
2018-05-17T17:00:30.265Z,21.65
2018-05-17T17:02:57.854Z,21.54
2018-05-17T17:05:25.495Z,21.48
2018-05-17T17:07:53.042Z,21.47
2018-05-17T17:10:20.640Z,21.43
2018-05-17T17:12:48.231Z,21.32
2018-05-17T17:15:15.865Z,21.35
2018-05-17T17:17:43.457Z,21.29
2018-05-17T17:20:11.053Z,21.35
2018-05-17T17:22:38.633Z,21.29
2018-05-17T17:25:06.309Z,21.30
2018-05-17T17:27:33.938Z,21.13
2018-05-17T17:30:01.513Z,21.06
2018-05-17T17:32:29.097Z,20.89
2018-05-17T17:34:56.686Z,20.83
2018-05-17T17:37:24.266Z,20.70
2018-05-17T17:39:52.689Z,20.61
2018-05-17T17:42:20.270Z,20.58
2018-05-17T17:44:48.321Z,20.54
2018-05-17T17:47:15.989Z,20.60
2018-05-17T17:49:43.605Z,20.44
2018-05-17T17:52:11.185Z,20.31
2018-05-17T17:54:38.805Z,20.22
2018-05-17T17:57:06.387Z,20.06
2018-05-17T17:59:33.966Z,19.95
2018-05-17T18:02:01.565Z,19.90
2018-05-17T18:04:29.225Z,19.94
2018-05-17T18:06:56.810Z,19.87
2018-05-17T18:09:24.503Z,19.70
2018-05-17T18:11:52.153Z,19.57
2018-05-17T18:14:20.645Z,19.58
2018-05-17T18:16:48.356Z,19.47
2018-05-17T18:19:15.933Z,19.47
2018-05-17T18:21:43.514Z,19.44
2018-05-17T18:24:11.875Z,19.31
2018-05-17T18:26:39.884Z,19.17
2018-05-17T18:29:07.905Z,19.19
2018-05-17T18:31:35.745Z,19.05
2018-05-17T18:34:03.625Z,19.01
2018-05-17T18:36:31.888Z,18.95
2018-05-17T18:38:59.957Z,18.87
2018-05-17T18:41:27.788Z,18.84
2018-05-17T18:43:57.110Z,18.64
2018-05-17T18:46:26.178Z,18.60
2018-05-17T18:48:54.505Z,18.60
2018-05-17T18:51:22.218Z,18.54
2018-05-17T18:53:49.793Z,18.37
2018-05-17T18:56:17.626Z,18.26
2018-05-17T18:58:45.389Z,18.28
2018-05-17T19:01:13.005Z,18.27
2018-05-17T19:03:40.617Z,18.26
2018-05-17T19:06:08.349Z,18.22
2018-05-17T19:08:37.284Z,18.11
2018-05-17T19:11:04.887Z,18.03
2018-05-17T19:13:32.464Z,17.96
2018-05-17T19:16:01.338Z,17.95
2018-05-17T19:18:29.381Z,17.85
2018-05-17T19:20:57.192Z,17.84
2018-05-17T19:23:24.921Z,17.86
2018-05-17T19:25:53.476Z,17.84
2018-05-17T19:28:21.061Z,17.78
2018-05-17T19:30:48.642Z,17.74
2018-05-17T19:33:16.225Z,17.68
2018-05-17T19:35:44.672Z,17.68
2018-05-17T19:38:13.237Z,17.61
2018-05-17T19:40:40.882Z,17.59
2018-05-17T19:43:08.513Z,17.63
2018-05-17T19:45:36.263Z,17.61
2018-05-17T19:48:03.849Z,17.60
2018-05-17T19:50:31.573Z,17.56
2018-05-17T19:52:59.600Z,17.51
2018-05-17T19:55:28.641Z,17.54
2018-05-17T19:57:56.918Z,17.49
2018-05-17T20:00:24.536Z,17.50
2018-05-17T20:02:52.405Z,17.48
2018-05-17T20:05:20.306Z,17.47
2018-05-17T20:07:47.941Z,17.46
2018-05-17T20:10:15.518Z,17.42
2018-05-17T20:12:43.094Z,17.37
2018-05-17T20:15:10.671Z,17.28
2018-05-17T20:17:38.292Z,17.26
2018-05-17T20:20:06.674Z,17.20
2018-05-17T20:22:35.157Z,17.09
2018-05-17T20:25:02.737Z,17.05
2018-05-17T20:27:30.365Z,16.94
2018-05-17T20:29:57.947Z,16.95
2018-05-17T20:32:25.526Z,16.92
2018-05-17T20:34:53.796Z,16.87
2018-05-17T20:37:22.279Z,16.80
2018-05-17T20:39:49.887Z,16.83
2018-05-17T20:42:17.523Z,16.67
2018-05-17T20:44:45.079Z,16.56
2018-05-17T20:47:12.796Z,16.45
2018-05-17T20:49:41.393Z,16.34
2018-05-17T20:52:09.774Z,16.21
2018-05-17T20:54:37.352Z,16.18
2018-05-17T20:57:04.994Z,16.03
2018-05-17T20:59:32.573Z,16.03
2018-05-17T21:02:00.154Z,16.00
2018-05-17T21:04:27.739Z,15.91
2018-05-17T21:06:55.334Z,15.90
2018-05-17T21:09:22.914Z,15.82
2018-05-17T21:11:50.578Z,15.80
2018-05-17T21:14:18.153Z,15.80
2018-05-17T21:16:45.844Z,15.64
2018-05-17T21:19:13.466Z,15.66
2018-05-17T21:21:41.072Z,15.66
2018-05-17T21:24:08.654Z,15.48
2018-05-17T21:26:36.345Z,15.52
2018-05-17T21:29:03.959Z,15.48
2018-05-17T21:31:31.658Z,15.35
2018-05-17T21:33:59.265Z,15.32
2018-05-17T21:36:26.850Z,15.29
2018-05-17T21:38:54.430Z,15.18
2018-05-17T21:41:22.160Z,15.08
2018-05-17T21:43:49.747Z,15.06
2018-05-17T21:46:18.138Z,15.01
2018-05-17T21:48:45.722Z,15.01
2018-05-17T21:51:13.382Z,14.91
2018-05-17T21:53:40.960Z,14.82
2018-05-17T21:56:08.573Z,14.77
2018-05-17T21:58:37.022Z,14.69
2018-05-17T22:01:05.379Z,14.54
2018-05-17T22:03:32.993Z,14.49
2018-05-17T22:06:00.569Z,14.38
2018-05-17T22:08:28.188Z,14.31
2018-05-17T22:10:55.765Z,14.28
2018-05-17T22:13:23.338Z,14.13
2018-05-17T22:15:50.918Z,14.14
2018-05-17T22:18:18.589Z,14.07
2018-05-17T22:20:46.168Z,14.00
2018-05-17T22:23:13.869Z,13.92
2018-05-17T22:25:41.505Z,13.88
2018-05-17T22:28:09.120Z,13.81
2018-05-17T22:30:36.702Z,13.72
2018-05-17T22:33:04.329Z,13.68
2018-05-17T22:35:32.743Z,13.58
2018-05-17T22:38:00.321Z,13.58
2018-05-17T22:40:27.897Z,13.56
2018-05-17T22:42:55.477Z,13.47
2018-05-17T22:45:23.061Z,13.42
2018-05-17T22:47:50.637Z,13.32
2018-05-17T22:50:18.241Z,13.23
2018-05-17T22:52:45.818Z,13.20
2018-05-17T22:55:13.395Z,13.10
2018-05-17T22:57:52.869Z,12.99
2018-05-17T23:00:20.449Z,12.95
2018-05-17T23:02:48.933Z,12.97
2018-05-17T23:05:17.202Z,12.92
2018-05-17T23:07:45.685Z,12.88
2018-05-17T23:10:13.265Z,12.82
2018-05-17T23:12:41.758Z,12.72
2018-05-17T23:15:10.149Z,12.67
2018-05-17T23:17:37.762Z,12.64
2018-05-17T23:20:05.341Z,12.63
2018-05-17T23:22:37.338Z,12.53
2018-05-17T23:25:04.965Z,12.52
2018-05-17T23:27:33.305Z,12.48
2018-05-17T23:30:01.574Z,12.42
2018-05-17T23:32:29.917Z,12.44
2018-05-17T23:34:58.316Z,12.35
2018-05-17T23:37:26.577Z,12.35
2018-05-17T23:39:54.884Z,12.19
2018-05-17T23:42:23.361Z,12.23
2018-05-17T23:44:51.845Z,12.25
2018-05-17T23:47:19.429Z,12.24
2018-05-17T23:49:47.009Z,12.15
2018-05-17T23:52:14.593Z,12.13
2018-05-17T23:54:42.945Z,12.01
2018-05-17T23:57:11.333Z,12.01
2018-05-17T23:59:39.733Z,12.04
